Time;durP1;ratioP1;P1;durP2;ratioP2;P2;SDS_P1;SDS_P2;PMS_P1;PMS_P2;Temp;Humidity;BMP_temperature;BMP_pressure;BME280_temperature;BME280_humidity;BME280_pressure;Samples;Min_cycle;Max_cycle;Signal;HPM_P1;HPM_P2
2022/09/30 00:01:04;;;;;;;15.63;10.55;;;;;;;-148.88;98.94;75870.66;4996185;28;20113;-84
2022/09/30 00:03:29;;;;;;;17.33;15.55;;;;;;;-148.88;98.99;75870.66;4980773;28;20019;-84
2022/09/30 00:06:00;;;;;;;14.13;10.38;;;;;;;-148.88;98.70;75870.66;4995840;28;20054;-84
2022/09/30 00:08:25;;;;;;;14.13;9.65;;;;;;;-148.88;98.78;75872.69;4995486;28;20034;-84
2022/09/30 00:11:04;;;;;;;14.45;9.25;;;;;;;-148.88;99.00;75870.66;4978997;28;20400;-84
2022/09/30 00:13:32;;;;;;;15.90;11.02;;;;;;;-148.88;98.79;75874.72;4979175;28;20023;-83
2022/09/30 00:15:58;;;;;;;16.55;11.98;;;;;;;-148.88;98.31;75872.69;4979015;28;20441;-84
2022/09/30 00:18:24;;;;;;;18.88;16.77;;;;;;;-148.88;98.26;75890.97;4995085;28;20031;-84
2022/09/30 00:20:49;;;;;;;17.52;10.88;;;;;;;-148.88;99.11;75895.03;4995184;28;20031;-85
2022/09/30 00:23:15;;;;;;;12.55;10.23;;;;;;;-148.88;99.74;75890.97;4995261;28;20023;-84
2022/09/30 00:25:40;;;;;;;16.17;11.52;;;;;;;-148.88;99.25;75895.03;4995147;28;20036;-85
2022/09/30 00:28:06;;;;;;;16.50;10.65;;;;;;;-148.88;99.21;75890.97;4992505;28;20473;-84
2022/09/30 00:30:33;;;;;;;13.57;9.82;;;;;;;-148.88;98.73;75899.09;4977065;28;20033;-84
2022/09/30 00:32:58;;;;;;;15.27;11.00;;;;;;;-148.88;98.83;75899.09;4975957;28;20085;-84
2022/09/30 00:35:24;;;;;;;16.27;10.60;;;;;;;-148.88;98.68;75901.13;4977282;28;20026;-84
2022/09/30 00:37:49;;;;;;;15.82;11.27;;;;;;;-148.88;98.29;75909.25;4991952;28;20039;-84
2022/09/30 00:40:15;;;;;;;17.15;10.85;;;;;;;-148.88;98.36;75911.28;4991889;28;20432;-84
2022/09/30 00:42:40;;;;;;;14.18;9.75;;;;;;;-148.88;98.69;75903.16;4976841;28;20038;-84
2022/09/30 00:45:09;;;;;;;16.20;11.02;;;;;;;-148.88;98.47;75915.34;4976730;28;20046;-84
2022/09/30 00:47:50;;;;;;;15.27;10.73;;;;;;;-148.88;98.29;75923.47;4975580;28;20027;-84
2022/09/30 00:50:15;;;;;;;17.00;10.57;;;;;;;-148.88;98.91;75929.56;4976799;28;20105;-84
2022/09/30 00:52:44;;;;;;;16.65;11.30;;;;;;;-148.88;99.37;75931.59;4975744;28;20062;-84
2022/09/30 00:55:25;;;;;;;15.00;10.23;;;;;;;-148.88;99.38;75931.59;4991634;28;20038;-84
2022/09/30 00:57:50;;;;;;;16.48;10.13;;;;;;;-148.88;99.23;75943.78;4975553;28;20054;-84
2022/09/30 01:00:16;;;;;;;16.65;11.70;;;;;;;-148.88;99.52;75945.81;4991436;28;20055;-84
2022/09/30 01:02:41;;;;;;;18.25;16.45;;;;;;;-148.88;99.60;75947.84;4975174;28;20035;-84
2022/09/30 01:05:09;;;;;;;17.55;11.38;;;;;;;-148.88;100.00;75943.78;4975464;28;20073;-84
2022/09/30 01:07:35;;;;;;;19.08;17.33;;;;;;;-148.88;100.00;75947.84;4991395;28;20121;-84
2022/09/30 01:10:02;;;;;;;16.98;11.90;;;;;;;-148.88;99.96;75939.72;4991423;28;20113;-84
2022/09/30 01:12:27;;;;;;;18.08;10.93;;;;;;;-148.88;100.00;75945.81;4991335;28;20027;-84
2022/09/30 01:14:56;;;;;;;17.88;11.23;;;;;;;-148.88;100.00;75945.81;4976830;28;20053;-84
2022/09/30 01:17:35;;;;;;;17.08;10.98;;;;;;;-148.88;100.00;75943.78;4991220;28;20030;-84
2022/09/30 01:20:25;;;;;;;16.08;10.52;;;;;;;-148.88;99.95;75943.78;4991726;28;20031;-84
2022/09/30 01:23:15;;;;;;;16.98;10.48;;;;;;;-148.88;99.86;75947.84;4975007;28;20030;-83
2022/09/30 01:26:01;;;;;;;15.77;10.98;;;;;;;-148.88;99.73;75951.91;4974881;28;20034;-85
2022/09/30 01:28:58;;;;;;;14.75;10.25;;;;;;;-148.88;100.00;75955.97;4975464;28;20129;-84
2022/09/30 01:31:49;;;;;;;15.05;10.77;;;;;;;-148.88;100.00;75955.97;4974799;28;20031;-84
2022/09/30 01:34:19;;;;;;;16.73;10.77;;;;;;;-148.88;100.00;75960.03;4964222;28;20058;-84
2022/09/30 01:37:03;;;;;;;17.23;11.35;;;;;;;-148.88;100.00;75962.06;4975808;28;20023;-84
2022/09/30 01:39:28;;;;;;;17.33;11.93;;;;;;;-148.88;100.00;75972.22;4974899;28;20078;-84
2022/09/30 01:42:17;;;;;;;21.05;13.10;;;;;;;-148.88;100.00;75970.19;4974907;28;20038;-84
2022/09/30 01:44:53;;;;;;;25.08;12.35;;;;;;;-148.88;100.00;75972.22;4990901;28;20054;-84
2022/09/30 01:47:33;;;;;;;18.35;11.25;;;;;;;-148.88;100.00;75982.38;4974450;28;20396;-84
2022/09/30 01:50:02;;;;;;;17.17;10.85;;;;;;;-148.88;100.00;75978.31;4975887;28;20045;-84
2022/09/30 01:53:02;;;;;;;19.35;12.32;;;;;;;-148.88;100.00;75984.41;4990538;28;20545;-84
2022/09/30 01:55:37;;;;;;;16.02;10.93;;;;;;;-148.88;100.00;75988.47;4990878;28;20485;-84
2022/09/30 01:58:15;;;;;;;17.55;11.88;;;;;;;-148.88;100.00;75990.50;4974339;28;20022;-83
2022/09/30 02:00:48;;;;;;;17.35;11.32;;;;;;;-148.88;100.00;75990.50;4990497;28;20436;-84
2022/09/30 02:03:44;;;;;;;17.13;11.18;;;;;;;-148.88;100.00;75994.56;4974166;28;20027;-84
2022/09/30 02:06:17;;;;;;;20.95;11.57;;;;;;;-148.88;100.00;75996.59;4975234;28;20074;-84
2022/09/30 02:09:05;;;;;;;19.73;12.80;;;;;;;-148.88;100.00;76008.78;4975768;28;20489;-85
2022/09/30 02:11:35;;;;;;;17.85;11.50;;;;;;;-148.88;100.00;76012.84;4990643;28;20022;-84
2022/09/30 02:14:07;;;;;;;18.30;12.25;;;;;;;-148.88;100.00;76029.09;4990026;28;20481;-84
2022/09/30 02:16:58;;;;;;;19.13;11.55;;;;;;;-148.88;100.00;76039.25;4990244;28;20027;-84
2022/09/30 02:19:34;;;;;;;18.70;13.05;;;;;;;-148.88;100.00;76037.22;4974111;28;20035;-84
2022/09/30 02:22:05;;;;;;;19.20;13.00;;;;;;;-148.88;100.00;76029.09;4975207;28;20018;-83
2022/09/30 02:24:37;;;;;;;16.20;11.60;;;;;;;-148.88;100.00;76031.13;4990225;28;20050;-84
2022/09/30 02:27:08;;;;;;;17.85;12.27;;;;;;;-148.88;100.00;76037.22;4973983;28;20026;-83
2022/09/30 02:29:38;;;;;;;17.20;11.55;;;;;;;-148.88;100.00;76049.41;4990066;28;20464;-84
2022/09/30 02:32:17;;;;;;;18.83;12.00;;;;;;;-148.88;100.00;76049.41;4993786;28;20014;-83
2022/09/30 02:34:49;;;;;;;21.75;13.07;;;;;;;-148.88;100.00;76075.81;4998110;28;20022;-84
2022/09/30 02:37:20;;;;;;;19.98;12.57;;;;;;;-148.88;100.00;76081.91;4993041;28;20029;-84
2022/09/30 02:39:50;;;;;;;18.80;12.23;;;;;;;-148.88;100.00;76073.78;4974460;28;20037;-84
2022/09/30 02:42:27;;;;;;;19.50;12.68;;;;;;;-148.88;100.00;76067.69;4990045;28;20138;-84
2022/09/30 02:45:01;;;;;;;19.48;12.40;;;;;;;-148.88;100.00;76073.78;4975240;28;20033;-82
2022/09/30 02:47:53;;;;;;;18.73;11.07;;;;;;;-148.88;100.00;76075.81;4989595;28;20033;-84
2022/09/30 02:50:38;;;;;;;19.13;12.38;;;;;;;-148.88;100.00;76073.78;4937230;28;20500;-83
2022/09/30 02:53:09;;;;;;;18.02;11.65;;;;;;;-148.88;100.00;76073.78;4975162;28;20119;-89
2022/09/30 02:55:46;;;;;;;23.73;12.07;;;;;;;-148.88;100.00;76083.94;4977306;28;20472;-87
2022/09/30 02:58:28;;;;;;;18.85;11.88;;;;;;;-148.88;100.00;76090.03;4975487;28;20033;-86
2022/09/30 03:00:53;;;;;;;20.67;12.07;;;;;;;-148.88;100.00;76085.97;4990405;28;20028;-85
2022/09/30 03:03:28;;;;;;;16.95;10.70;;;;;;;-148.88;100.00;76083.94;4990643;28;20110;-89
2022/09/30 03:05:54;;;;;;;16.73;11.32;;;;;;;-148.88;100.00;76081.91;4974219;28;20054;-86
2022/09/30 03:08:19;;;;;;;17.02;11.52;;;;;;;-148.88;100.00;76077.84;4989744;28;20070;-88
2022/09/30 03:10:49;;;;;;;16.85;11.48;;;;;;;-148.88;100.00;76077.84;4975429;28;20030;-85
2022/09/30 03:13:46;;;;;;;16.02;11.00;;;;;;;-148.88;100.00;76079.88;4993969;28;20058;-87
2022/09/30 03:16:50;;;;;;;17.65;11.52;;;;;;;-148.88;100.00;76073.78;4973539;28;20037;-86
2022/09/30 03:19:53;;;;;;;16.48;10.57;;;;;;;-148.88;100.00;76081.91;4974603;28;20070;-88
2022/09/30 03:23:02;;;;;;;15.70;10.48;;;;;;;-148.88;100.00;76094.09;4989975;28;20027;-88
2022/09/30 03:25:33;;;;;;;15.80;10.57;;;;;;;-148.88;100.00;76085.97;4989262;28;20122;-87
2022/09/30 03:28:04;;;;;;;17.10;10.50;;;;;;;-148.88;100.00;76098.16;4989596;28;20038;-87
2022/09/30 03:30:34;;;;;;;17.65;10.80;;;;;;;-148.88;100.00;76106.28;4973180;28;20564;-87
2022/09/30 03:33:44;;;;;;;16.60;10.30;;;;;;;-148.88;100.00;76102.22;4989232;28;20122;-86
2022/09/30 03:36:28;;;;;;;19.15;11.82;;;;;;;-148.88;100.00;76110.34;4914469;29;20486;-85
2022/09/30 03:41:52;;;;;;;16.65;10.35;;;;;;;-148.88;100.00;76114.41;5031328;28;20052;-80
2022/09/30 03:44:31;;;;;;;14.80;9.98;;;;;;;-148.88;100.00;76118.47;5032025;28;20052;-82
2022/09/30 03:47:02;;;;;;;15.77;10.80;;;;;;;-148.88;100.00;76124.56;5034283;28;20029;-82
2022/09/30 03:49:35;;;;;;;15.38;10.63;;;;;;;-148.88;100.00;76130.69;5027581;28;20029;-82
2022/09/30 03:52:09;;;;;;;20.13;11.25;;;;;;;-148.88;100.00;76134.72;5014573;28;20026;-81
2022/09/30 03:54:45;;;;;;;17.77;12.10;;;;;;;-148.88;100.00;76138.81;5014253;28;20119;-79
2022/09/30 03:57:13;;;;;;;17.70;11.10;;;;;;;-148.88;100.00;76140.84;5013351;28;20028;-81
2022/09/30 03:59:39;;;;;;;18.25;11.45;;;;;;;-148.88;100.00;76140.84;5014370;28;20018;-81
2022/09/30 04:02:09;;;;;;;20.58;11.98;;;;;;;-148.88;100.00;76142.88;5013950;28;20388;-81
2022/09/30 04:04:41;;;;;;;20.63;12.25;;;;;;;-148.88;100.00;76148.97;5021405;28;20022;-82
2022/09/30 04:07:13;;;;;;;21.00;12.75;;;;;;;-148.88;100.00;76142.88;5022232;28;20026;-82
2022/09/30 04:09:39;;;;;;;20.13;13.40;;;;;;;-148.88;100.00;76146.94;5017783;28;20045;-80
2022/09/30 04:12:09;;;;;;;21.48;12.15;;;;;;;-148.88;100.00;76151.00;5032926;28;20033;-80
2022/09/30 04:14:34;;;;;;;22.73;13.05;;;;;;;-148.88;100.00;76155.06;5021510;28;20121;-81
2022/09/30 04:17:01;;;;;;;20.00;12.15;;;;;;;-148.88;100.00;76151.00;5032504;28;20029;-83
2022/09/30 04:19:26;;;;;;;22.30;12.48;;;;;;;-148.88;100.00;76153.03;5027809;28;20022;-82
2022/09/30 04:21:55;;;;;;;20.10;12.88;;;;;;;-148.88;100.00;76151.00;5020780;28;20029;-82
2022/09/30 04:24:22;;;;;;;18.50;11.80;;;;;;;-148.88;100.00;76159.13;5017801;28;20385;-81
2022/09/30 04:26:48;;;;;;;21.58;13.02;;;;;;;-148.88;100.00;76165.22;5017347;28;20025;-81
2022/09/30 04:29:14;;;;;;;18.70;11.65;;;;;;;-148.88;100.00;76171.31;5018068;28;20029;-79
2022/09/30 04:31:43;;;;;;;18.98;12.15;;;;;;;-148.88;100.00;76159.13;5015704;28;20026;-81
2022/09/30 04:34:10;;;;;;;22.33;13.30;;;;;;;-148.88;100.00;76167.25;5016150;28;20112;-81
2022/09/30 04:36:39;;;;;;;21.88;12.15;;;;;;;-148.88;100.00;76175.38;5016265;28;20113;-81
2022/09/30 04:39:10;;;;;;;18.38;10.85;;;;;;;-148.88;100.00;76171.31;5016499;28;20025;-81
2022/09/30 04:41:36;;;;;;;20.42;11.65;;;;;;;-148.88;100.00;76175.38;5017424;28;20046;-82
2022/09/30 04:44:05;;;;;;;20.17;12.07;;;;;;;-148.88;100.00;76193.66;5017775;28;20018;-82
2022/09/30 04:46:37;;;;;;;23.08;12.77;;;;;;;-148.88;100.00;76226.16;5017642;28;20447;-84
2022/09/30 04:49:10;;;;;;;21.25;12.05;;;;;;;-148.88;100.00;76232.25;5017268;28;20026;-81
2022/09/30 04:51:37;;;;;;;18.02;11.00;;;;;;;-148.88;100.00;76226.16;5016736;28;20041;-83
2022/09/30 04:54:02;;;;;;;16.75;10.55;;;;;;;-148.88;100.00;76232.25;5001817;28;20038;-81
2022/09/30 04:56:28;;;;;;;18.50;11.23;;;;;;;-148.88;100.00;76236.31;5033914;28;20507;-81
2022/09/30 04:58:54;;;;;;;16.95;11.60;;;;;;;-148.88;100.00;76232.25;5016420;28;20030;-83
2022/09/30 05:01:22;;;;;;;19.30;12.18;;;;;;;-148.88;100.00;76236.31;5017839;28;20476;-83
2022/09/30 05:03:49;;;;;;;21.00;12.50;;;;;;;-148.88;100.00;76240.38;5018451;28;20021;-82
2022/09/30 05:06:15;;;;;;;16.27;10.98;;;;;;;-148.88;100.00;76242.41;5018007;28;20029;-82
2022/09/30 05:08:42;;;;;;;15.27;9.85;;;;;;;-148.88;100.00;76242.41;5019709;28;20034;-82
2022/09/30 05:11:09;;;;;;;18.48;10.07;;;;;;;-148.88;100.00;76244.44;5018345;28;20083;-82
2022/09/30 05:13:37;;;;;;;15.82;9.98;;;;;;;-148.88;100.00;76260.69;5017412;28;20056;-81
2022/09/30 05:16:04;;;;;;;17.40;10.10;;;;;;;-148.88;100.00;76268.81;5018683;28;20030;-80
2022/09/30 05:18:30;;;;;;;13.93;9.48;;;;;;;-148.88;100.00;76276.94;5020712;28;20365;-82
2022/09/30 05:21:01;;;;;;;14.55;9.88;;;;;;;-148.88;100.00;76285.06;5019129;28;20037;-82
2022/09/30 05:23:31;;;;;;;14.38;9.30;;;;;;;-148.88;100.00;76283.03;5018171;28;20029;-82
2022/09/30 05:26:08;;;;;;;16.90;10.13;;;;;;;-148.88;100.00;76281.00;5016738;28;20092;-81
2022/09/30 05:28:37;;;;;;;15.05;9.75;;;;;;;-148.88;100.00;76281.00;5018308;28;20116;-82
2022/09/30 05:31:05;;;;;;;15.45;10.70;;;;;;;-148.88;100.00;76274.91;5019048;28;20137;-81
2022/09/30 05:33:31;;;;;;;18.92;10.95;;;;;;;-148.88;100.00;76274.91;5019154;28;20026;-82
2022/09/30 05:36:08;;;;;;;18.73;10.48;;;;;;;-148.88;100.00;76281.00;5019730;28;20152;-82
2022/09/30 05:38:34;;;;;;;16.75;10.93;;;;;;;-148.88;100.00;76285.06;5018008;28;20057;-82
2022/09/30 05:41:12;;;;;;;19.00;9.90;;;;;;;-148.88;100.00;76285.06;5019584;28;20029;-82
2022/09/30 05:43:44;;;;;;;17.52;10.10;;;;;;;-148.88;100.00;76278.97;5018523;28;20376;-82
2022/09/30 05:46:09;;;;;;;19.40;10.80;;;;;;;-148.88;100.00;76272.88;5018843;28;20076;-81
2022/09/30 05:48:35;;;;;;;15.52;9.80;;;;;;;-148.88;100.00;76266.78;5018791;28;20026;-82
2022/09/30 05:51:01;;;;;;;17.35;9.48;;;;;;;-148.88;100.00;76260.69;5019472;28;20456;-82
2022/09/30 05:53:27;;;;;;;17.33;9.90;;;;;;;-148.88;100.00;76266.78;5018021;28;20037;-81
2022/09/30 05:55:53;;;;;;;14.65;10.10;;;;;;;-148.88;100.00;76270.84;5035452;28;20026;-81
2022/09/30 05:58:21;;;;;;;15.15;9.95;;;;;;;-148.88;100.00;76264.75;5018987;28;20028;-82
2022/09/30 06:00:48;;;;;;;18.85;10.70;;;;;;;-148.88;100.00;76260.69;5033046;28;20030;-82
2022/09/30 06:03:23;;;;;;;21.02;11.63;;;;;;;-148.88;100.00;76256.63;5016439;28;20032;-82
2022/09/30 06:05:58;;;;;;;17.52;11.30;;;;;;;-148.88;100.00;76252.56;5023644;28;20080;-82
2022/09/30 06:08:23;;;;;;;17.88;10.32;;;;;;;-148.88;100.00;76252.56;5024966;28;20029;-82
2022/09/30 06:10:49;;;;;;;18.75;10.93;;;;;;;-148.88;100.00;76256.63;5022780;28;20026;-83
2022/09/30 06:13:16;;;;;;;19.00;10.85;;;;;;;-148.88;100.00;76248.50;5023251;28;20053;-82
2022/09/30 06:15:42;;;;;;;19.05;11.57;;;;;;;-148.88;100.00;76244.44;5024125;28;20021;-82
2022/09/30 06:18:08;;;;;;;20.30;12.00;;;;;;;-148.88;100.00;76240.38;5020220;28;20022;-82
2022/09/30 06:20:34;;;;;;;18.30;10.95;;;;;;;-148.88;100.00;76234.28;5019141;28;20054;-82
2022/09/30 06:23:00;;;;;;;19.13;11.18;;;;;;;-148.88;100.00;76230.22;5019533;28;20026;-82
2022/09/30 06:25:27;;;;;;;19.20;12.07;;;;;;;-148.88;100.00;76224.13;5017449;28;20047;-82
2022/09/30 06:27:56;;;;;;;18.02;11.50;;;;;;;-148.88;100.00;76220.06;5018418;28;20055;-82
2022/09/30 06:30:21;;;;;;;23.60;11.25;;;;;;;-148.88;100.00;76220.06;5019438;28;20087;-83
2022/09/30 06:32:47;;;;;;;21.50;10.55;;;;;;;-148.88;100.00;76216.00;5019601;28;20046;-82
2022/09/30 06:35:12;;;;;;;18.73;11.52;;;;;;;-148.88;100.00;76216.00;5019197;28;20084;-82
2022/09/30 06:37:38;;;;;;;21.65;11.70;;;;;;;-148.88;100.00;76209.91;5015462;28;20517;-81
2022/09/30 06:40:04;;;;;;;20.95;11.65;;;;;;;-148.88;100.00;76195.69;5016171;28;20037;-82
2022/09/30 06:42:30;;;;;;;17.85;11.30;;;;;;;-148.88;100.00;76191.63;5034926;28;20035;-83
2022/09/30 06:44:56;;;;;;;27.95;11.18;;;;;;;-148.88;100.00;76183.50;5018270;28;20037;-82
2022/09/30 06:47:21;;;;;;;20.55;11.18;;;;;;;-148.88;100.00;76171.31;5019935;28;20026;-82
2022/09/30 06:49:46;;;;;;;20.38;12.18;;;;;;;-148.88;100.00;76161.16;5018079;28;20088;-82
2022/09/30 06:52:12;;;;;;;19.58;12.27;;;;;;;-148.88;100.00;76159.13;5019379;28;20026;-82
2022/09/30 06:54:42;;;;;;;22.85;12.13;;;;;;;-148.88;100.00;76151.00;5018667;28;20392;-82
2022/09/30 06:57:07;;;;;;;19.35;11.85;;;;;;;-148.88;100.00;76142.88;5018583;28;20018;-84
2022/09/30 06:59:33;;;;;;;21.00;11.20;;;;;;;-148.88;100.00;76124.56;5017975;28;20032;-84
2022/09/30 07:01:58;;;;;;;20.25;12.00;;;;;;;-148.88;100.00;76122.56;5019079;28;20029;-83
2022/09/30 07:04:23;;;;;;;21.92;12.95;;;;;;;-148.88;100.00;76116.44;5019465;28;20080;-83
2022/09/30 07:06:49;;;;;;;19.10;12.55;;;;;;;-148.88;100.00;76112.41;5017644;28;20022;-83
2022/09/30 07:09:15;;;;;;;20.73;12.10;;;;;;;-148.88;100.00;76108.31;5018005;28;20056;-84
2022/09/30 07:11:41;;;;;;;19.92;11.50;;;;;;;-148.88;100.00;76104.25;5016041;28;20384;-83
2022/09/30 07:14:07;;;;;;;20.90;12.20;;;;;;;-148.88;100.00;76088.00;5014734;28;20073;-83
2022/09/30 07:16:33;;;;;;;22.30;12.82;;;;;;;-148.88;100.00;76077.84;5016089;28;20037;-83
2022/09/30 07:19:00;;;;;;;21.08;12.25;;;;;;;-148.88;100.00;76065.66;5017639;28;20032;-83
2022/09/30 07:21:25;;;;;;;20.40;12.30;;;;;;;-148.88;100.00;76055.50;5017956;28;20037;-83
2022/09/30 07:23:52;;;;;;;23.10;12.70;;;;;;;-148.88;100.00;76045.34;5018087;28;20018;-83
2022/09/30 07:26:19;;;;;;;20.00;11.98;;;;;;;-148.88;100.00;76041.28;5017417;28;20022;-84
2022/09/30 07:28:45;;;;;;;18.10;12.23;;;;;;;-148.88;100.00;76035.19;5019428;28;20018;-83
2022/09/30 07:31:15;;;;;;;20.30;12.68;;;;;;;-148.88;100.00;76023.00;5018637;28;20033;-82
2022/09/30 07:33:41;;;;;;;19.20;12.48;;;;;;;-148.88;100.00;76016.91;5017915;28;20022;-83
2022/09/30 07:36:07;;;;;;;19.20;11.48;;;;;;;-148.88;100.00;76008.78;5019555;28;20034;-83
2022/09/30 07:38:35;;;;;;;19.55;12.77;;;;;;;-148.88;100.00;75996.59;5021725;28;20480;-84
2022/09/30 07:41:13;;;;;;;18.10;12.43;;;;;;;-148.88;100.00;75988.47;5023385;28;20514;-83
2022/09/30 07:43:41;;;;;;;25.27;21.63;;;;;;;-148.88;100.00;75976.28;5022106;28;20025;-83
2022/09/30 07:46:12;;;;;;;18.35;12.35;;;;;;;-148.88;100.00;75970.19;5021062;28;20022;-83
2022/09/30 07:48:44;;;;;;;21.85;13.65;;;;;;;-148.88;100.00;75955.97;5019623;28;20032;-83
2022/09/30 07:51:19;;;;;;;22.00;14.13;;;;;;;-148.88;100.00;75947.84;5019294;28;20037;-83
2022/09/30 07:53:48;;;;;;;20.55;12.95;;;;;;;-148.88;100.00;75943.78;5020122;28;20022;-83
2022/09/30 07:56:14;;;;;;;24.63;20.00;;;;;;;-148.88;100.00;75935.66;5022787;28;20021;-83
2022/09/30 07:58:41;;;;;;;21.90;13.45;;;;;;;-148.88;100.00;75931.59;5023357;28;20072;-83
2022/09/30 08:01:07;;;;;;;20.77;12.15;;;;;;;-148.88;100.00;75933.63;5022824;28;20025;-83
2022/09/30 08:03:35;;;;;;;23.77;20.45;;;;;;;-148.88;100.00;75911.28;5022600;28;20089;-84
2022/09/30 08:06:07;;;;;;;23.55;12.50;;;;;;;-148.88;100.00;75903.16;5027614;28;20026;-84
2022/09/30 08:08:32;;;;;;;18.08;11.75;;;;;;;-148.88;100.00;75895.03;5027946;28;20025;-84
2022/09/30 08:10:59;;;;;;;19.10;12.32;;;;;;;-148.88;100.00;75880.81;5027076;28;20048;-85
2022/09/30 08:13:24;;;;;;;21.67;18.95;;;;;;;-148.88;100.00;75868.63;5025792;28;20032;-83
2022/09/30 08:15:49;;;;;;;20.60;13.73;;;;;;;-148.88;100.00;75850.34;5026796;28;20073;-84
2022/09/30 08:18:15;;;;;;;20.10;13.23;;;;;;;-148.88;100.00;75836.13;5025503;28;20026;-82
2022/09/30 08:20:40;;;;;;;23.20;20.35;;;;;;;-148.88;100.00;75821.91;5026540;28;20080;-84
2022/09/30 08:23:05;;;;;;;24.75;20.90;;;;;;;-148.88;100.00;75807.69;5019331;28;20026;-83
2022/09/30 08:25:34;;;;;;;22.13;19.25;;;;;;;-148.88;100.00;75779.25;5019448;28;20105;-84
2022/09/30 08:27:59;;;;;;;21.40;13.52;;;;;;;-148.88;100.00;75765.03;5019983;28;20056;-83
2022/09/30 08:30:25;;;;;;;18.88;12.13;;;;;;;-148.88;97.89;75750.81;5020617;28;20029;-83
2022/09/30 08:32:50;;;;;;;21.63;13.60;;;;;;;-148.88;97.50;75744.72;5021788;28;20064;-83
2022/09/30 08:35:16;;;;;;;20.80;17.70;;;;;;;-148.88;98.14;75740.66;5021538;28;20026;-83
2022/09/30 08:37:41;;;;;;;23.13;19.30;;;;;;;-148.88;98.79;75710.19;5022563;28;20480;-85
2022/09/30 08:40:20;;;;;;;20.90;18.35;;;;;;;-148.88;98.62;75702.06;5021515;28;20036;-83
2022/09/30 08:43:11;;;;;;;20.85;18.25;;;;;;;-148.88;95.61;75661.44;5021800;28;20026;-84
2022/09/30 08:45:57;;;;;;;19.52;12.30;;;;;;;-148.88;92.53;75657.38;5022581;28;20042;-85
2022/09/30 08:49:01;;;;;;;19.40;17.38;;;;;;;-148.88;94.55;75622.84;5020394;28;20025;-84
2022/09/30 08:51:35;;;;;;;20.08;12.77;;;;;;;-148.88;92.73;75618.78;5021638;28;20044;-84
2022/09/30 08:54:08;;;;;;;21.10;16.35;;;;;;;-148.88;91.98;75598.47;5021386;28;20026;-84
2022/09/30 08:56:35;;;;;;;19.70;17.60;;;;;;;-148.88;92.38;75570.03;5021999;28;20487;-84
2022/09/30 08:59:25;;;;;;;17.58;15.77;;;;;;;-148.88;93.00;75541.63;5016487;28;20073;-83
2022/09/30 09:02:10;;;;;;;18.48;16.52;;;;;;;-148.88;91.78;75509.13;5013110;28;20033;-84
2022/09/30 09:04:35;;;;;;;19.33;16.58;;;;;;;-148.88;87.42;75505.06;5018712;28;20204;-84
2022/09/30 09:07:25;;;;;;;19.63;15.55;;;;;;;-148.88;86.13;75472.56;5020462;28;20452;-84
2022/09/30 09:10:17;;;;;;;20.70;16.88;;;;;;;-148.88;87.89;75436.00;5022172;28;20388;-84
2022/09/30 09:13:01;;;;;;;18.63;15.23;;;;;;;-148.88;86.94;75411.63;5021639;28;20022;-83
2022/09/30 09:15:29;;;;;;;16.95;15.15;;;;;;;-148.88;85.66;75387.25;5021566;28;20494;-83
2022/09/30 09:18:10;;;;;;;18.70;16.17;;;;;;;-148.88;82.02;75379.13;5020304;28;20030;-84
2022/09/30 09:20:41;;;;;;;19.17;15.07;;;;;;;-148.88;78.90;75354.75;5020232;28;20408;-84
2022/09/30 09:23:11;;;;;;;21.55;15.68;;;;;;;-148.88;78.54;75344.59;5022121;28;20017;-85
2022/09/30 09:25:37;;;;;;;22.60;16.23;;;;;;;-148.88;78.01;75330.38;5021807;28;20349;-84
2022/09/30 09:28:25;;;;;;;22.02;16.70;;;;;;;-148.88;77.43;75326.31;5021349;28;20129;-84
2022/09/30 09:30:56;;;;;;;30.88;22.05;;;;;;;-148.88;77.04;75297.88;5021125;28;20033;-84
2022/09/30 09:33:29;;;;;;;27.40;18.98;;;;;;;-148.88;75.74;75281.66;5017282;28;20022;-84
2022/09/30 09:36:11;;;;;;;21.50;15.80;;;;;;;-148.88;74.30;75273.53;5016573;28;20495;-83
2022/09/30 09:38:59;;;;;;;23.55;16.42;;;;;;;-148.88;75.24;75269.47;5017613;28;20041;-84
2022/09/30 09:41:43;;;;;;;27.48;17.60;;;;;;;-148.88;74.18;75259.31;5018441;28;20083;-85
2022/09/30 09:44:40;;;;;;;24.70;18.65;;;;;;;-148.88;72.69;75261.34;5018970;28;20030;-85
2022/09/30 09:47:15;;;;;;;26.98;20.95;;;;;;;-148.88;71.22;75234.94;5019746;28;20036;-84
2022/09/30 09:49:43;;;;;;;29.02;21.80;;;;;;;-148.88;71.68;75247.13;5019798;28;20025;-85
2022/09/30 09:52:29;;;;;;;27.88;21.02;;;;;;;-148.88;73.95;75192.28;5020532;28;20018;-85
2022/09/30 09:54:55;;;;;;;24.70;20.15;;;;;;;-148.88;72.30;75200.41;5020299;28;20041;-84
2022/09/30 09:57:26;;;;;;;22.17;17.15;;;;;;;-148.88;69.33;75232.91;5020010;28;20033;-84
2022/09/30 10:03:20;;;;;;;21.48;15.88;;;;;;;-148.88;70.19;75167.91;5022955;28;20061;-85
2022/09/30 10:06:02;;;;;;;18.13;15.10;;;;;;;-148.88;68.29;75159.78;5025515;28;20044;-85
2022/09/30 10:08:30;;;;;;;20.20;14.75;;;;;;;-148.88;70.01;75139.47;5020118;28;20022;-84
2022/09/30 10:11:16;;;;;;;19.55;15.32;;;;;;;-148.88;67.91;75159.78;5015748;28;20029;-84
2022/09/30 10:13:45;;;;;;;18.05;13.88;;;;;;;-148.88;68.17;75119.16;5016778;28;20026;-84
2022/09/30 10:16:29;;;;;;;20.15;13.38;;;;;;;-148.88;67.81;75078.56;5019221;28;20028;-84
2022/09/30 10:18:55;;;;;;;17.65;12.75;;;;;;;-148.88;66.03;75082.63;5020923;28;20042;-84
2022/09/30 10:21:26;;;;;;;18.92;12.52;;;;;;;-148.88;64.40;75052.16;5020915;28;20046;-85
2022/09/30 10:23:52;;;;;;;16.83;13.13;;;;;;;-148.88;65.91;75062.31;5021859;28;20018;-85
2022/09/30 10:26:24;;;;;;;19.00;12.60;;;;;;;-148.88;66.08;75013.56;5021323;28;20133;-85
2022/09/30 10:28:54;;;;;;;16.03;11.57;;;;;;;-148.88;62.65;75027.78;5021679;28;20052;-84
2022/09/30 10:31:26;;;;;;;16.38;12.05;;;;;;;-148.88;64.48;74983.09;5021047;28;20033;-85
2022/09/30 10:34:18;;;;;;;16.10;11.68;;;;;;;-148.88;61.54;74985.13;5020374;28;20064;-86
2022/09/30 10:36:45;;;;;;;15.65;11.32;;;;;;;-148.88;64.16;74952.63;5019607;28;20032;-85
2022/09/30 10:39:16;;;;;;;15.98;11.23;;;;;;;-148.88;61.65;74964.81;5019767;28;20024;-85
2022/09/30 10:41:42;;;;;;;19.88;11.05;;;;;;;-148.88;61.27;74974.97;5018357;28;20029;-86
2022/09/30 10:44:18;;;;;;;14.90;10.70;;;;;;;-148.88;61.17;74938.44;5016006;28;20018;-86
2022/09/30 10:46:48;;;;;;;16.45;10.13;;;;;;;-148.88;61.92;74912.03;5015549;28;20022;-86
2022/09/30 10:49:39;;;;;;;17.25;10.65;;;;;;;-148.88;60.06;74991.22;5016192;28;20056;-85
2022/09/30 10:52:13;;;;;;;15.02;10.32;;;;;;;-148.88;60.62;74964.81;5017188;28;20116;-85
2022/09/30 10:54:39;;;;;;;15.02;10.20;;;;;;;-148.88;63.04;74944.53;5018365;28;20420;-86
2022/09/30 10:57:12;;;;;;;12.65;10.35;;;;;;;-148.88;60.82;74960.75;5017342;28;20518;-86
2022/09/30 10:59:40;;;;;;;13.35;9.30;;;;;;;-148.88;58.46;75001.38;5017364;28;20488;-86
2022/09/30 11:02:29;;;;;;;12.82;10.38;;;;;;;-148.88;59.50;75009.50;5018166;28;20030;-86
2022/09/30 11:05:14;;;;;;;11.98;9.20;;;;;;;-148.88;59.58;74962.78;5017995;28;20087;-85
2022/09/30 11:07:57;;;;;;;13.27;9.80;;;;;;;-148.88;59.81;74922.19;5018957;28;20068;-86
2022/09/30 11:11:04;;;;;;;15.63;9.55;;;;;;;-148.88;58.80;74891.72;5016440;28;20056;-86
2022/09/30 11:13:58;;;;;;;11.32;9.95;;;;;;;-148.88;57.74;74948.56;5018984;28;20100;-85
2022/09/30 11:16:33;;;;;;;12.83;9.50;;;;;;;-148.88;62.06;74960.75;5017665;28;20507;-86
2022/09/30 11:19:08;;;;;;;11.45;9.32;;;;;;;-148.88;60.41;74932.34;5016318;28;20033;-84
2022/09/30 11:21:55;;;;;;;11.85;8.50;;;;;;;-148.88;58.88;74936.41;5014842;28;20380;-85
2022/09/30 11:24:40;;;;;;;9.73;8.50;;;;;;;-148.88;59.65;74924.22;5031838;28;20033;-84
2022/09/30 11:27:16;;;;;;;12.15;8.23;;;;;;;-148.88;60.81;75027.78;5016557;28;20026;-85